Sacramento, California
Traffic Map
Current Weather Conditions
Sacramento, California
Clear
Clear
64°
Feels Like: 64°
Wind Chill: 64° Ceiling: Unl
Heat Index: 64° Visibility: 10mi
Dew Point: 37° Wind: 0mph
Humidity: 37% Direction: ° ()
Pressure: 30.34in Gusts: 0mph
Raw Report DataKSAC 242353Z 00000KT 10SM CLR 18/03 A3034 RMK AO2 SLP274 T01780028 10183 20111 56009
Traffic Incident Summary
Active as of:
Severity:
Category:
InformationThere was an issue retrieving the traffic information for this location. Please try a different location or try again shortly.
Advertisements
Track Severe Weather on mobile